Time,TemperatureF,DewpointF,PressureIn,WindDirection,WindDirectionDegrees,WindSpeedMPH,WindSpeedGustMPH,Humidity,HourlyPrecipIn,Conditions,Clouds,dailyrainin,SoftwareType,DateUTC
2013-01-15 00:00:00,34.3,23.4,30.21,WNW,301,0.0,4.0,64,0.00,,-RA,0.02,VWS V14.00,2013-01-15 05:00:00,
2013-01-15 00:01:00,34.3,23.4,30.21,WNW,301,0.0,2.0,64,0.00,,-RA,0.00,VWS V14.00,2013-01-15 05:01:00,
2013-01-15 00:06:00,34.3,23.4,30.21,North,349,0.0,3.0,64,0.00,,-RA,0.00,VWS V14.00,2013-01-15 05:06:00,
2013-01-15 00:11:00,34.3,23.4,30.21,NNW,344,1.0,3.0,64,0.00,,-RA,0.00,VWS V14.00,2013-01-15 05:11:00,
2013-01-15 00:16:00,34.3,23.4,30.21,NW,313,2.0,4.0,64,0.00,,-RA,0.00,VWS V14.00,2013-01-15 05:16:00,
2013-01-15 00:21:00,34.3,23.4,30.21,North,355,2.0,5.0,64,0.00,,-RA,0.00,VWS V14.00,2013-01-15 05:21:00,
2013-01-15 09:39:00,32.2,23.5,30.28,NNW,345,1.0,1.0,70,0.00,,,0.00,VWS V14.00,2013-01-15 14:39:00,
2013-01-15 09:44:00,32.4,23.7,30.28,NW,318,3.0,3.0,70,0.00,,,0.00,VWS V14.00,2013-01-15 14:44:00,
2013-01-15 09:49:00,32.4,23.7,30.28,WNW,300,2.0,2.0,70,0.00,,BKN090,0.00,VWS V14.00,2013-01-15 14:49:00,
2013-01-15 09:54:00,32.5,23.5,30.28,WNW,300,2.0,3.0,69,0.00,,BKN090,0.00,VWS V14.00,2013-01-15 14:54:00,
2013-01-15 09:59:00,32.7,23.7,30.28,NW,323,1.0,3.0,69,0.00,,BKN090,0.00,VWS V14.00,2013-01-15 14:59:00,
2013-01-15 10:04:00,32.8,23.8,30.27,NNW,328,1.0,3.0,69,0.00,,BKN090,0.00,VWS V14.00,2013-01-15 15:04:00,
2013-01-15 10:09:00,32.9,23.9,30.27,NNE,27,2.0,3.0,69,0.00,,BKN090,0.00,VWS V14.00,2013-01-15 15:09:00,
2013-01-15 10:14:00,33.1,24.0,30.27,North,360,1.0,5.0,69,0.00,,BKN090,0.00,VWS V14.00,2013-01-15 15:14:00,
2013-01-15 10:19:00,33.1,23.7,30.27,NNW,335,1.0,3.0,68,0.00,,BKN090,0.00,VWS V14.00,2013-01-15 15:19:00,
2013-01-15 10:24:00,33.2,23.5,30.27,NNE,33,4.0,5.0,67,0.00,,BKN090,0.00,VWS V14.00,2013-01-15 15:24:00,
2013-01-15 10:29:00,33.2,23.5,30.27,NNW,334,1.0,3.0,67,0.00,,BKN090,0.00,VWS V14.00,2013-01-15 15:29:00,
2013-01-15 10:34:00,33.4,23.6,30.26,WNW,303,1.0,4.0,67,0.00,,BKN090,0.00,VWS V14.00,2013-01-15 15:34:00,
2013-01-15 10:39:00,33.4,23.6,30.26,NW,310,1.0,2.0,67,0.00,,BKN090,0.00,VWS V14.00,2013-01-15 15:39:00,
2013-01-15 10:44:00,33.5,23.7,30.26,NE,34,2.0,5.0,67,0.00,,BKN090,0.00,VWS V14.00,2013-01-15 15:44:00,
2013-01-15 10:49:00,33.5,23.7,30.25,NNW,332,3.0,3.0,67,0.00,,BKN090,0.00,VWS V14.00,2013-01-15 15:49:00,
2013-01-15 10:54:00,33.5,23.7,30.25,NNW,333,1.0,3.0,67,0.00,,BKN090,0.00,VWS V14.00,2013-01-15 15:54:00,
2013-01-15 10:59:00,33.7,23.9,30.25,NW,326,2.0,4.0,67,0.00,,BKN090,0.00,VWS V14.00,2013-01-15 15:59:00,
2013-01-15 11:04:00,33.7,23.6,30.26,WNW,294,2.0,7.0,66,0.00,,BKN090,0.00,VWS V14.00,2013-01-15 16:04:00,
2013-01-15 11:09:00,33.7,23.6,30.26,NW,310,5.0,6.0,66,0.00,,BKN090,0.00,VWS V14.00,2013-01-15 16:09:00,
2013-01-15 11:14:00,33.8,23.3,30.26,North,360,3.0,3.0,65,0.00,,BKN090,0.00,VWS V14.00,2013-01-15 16:14:00,
2013-01-15 11:19:00,34.0,23.5,30.25,NNW,348,2.0,3.0,65,0.00,,BKN090,0.00,VWS V14.00,2013-01-15 16:19:00,
2013-01-15 11:24:00,34.1,23.6,30.25,NW,310,1.0,5.0,65,0.00,,BKN090,0.00,VWS V14.00,2013-01-15 16:24:00,
2013-01-15 11:29:00,34.1,23.6,30.25,NW,316,4.0,6.0,65,0.00,,BKN090,0.00,VWS V14.00,2013-01-15 16:29:00,
2013-01-15 11:34:00,34.1,23.2,30.25,WNW,292,3.0,4.0,64,0.00,,BKN090,0.00,VWS V14.00,2013-01-15 16:34:00,
2013-01-15 11:39:00,34.1,23.2,30.25,WNW,295,3.0,4.0,64,0.00,,BKN090,0.00,VWS V14.00,2013-01-15 16:39:00,
2013-01-15 11:44:00,34.1,23.2,30.25,WNW,302,3.0,5.0,64,0.00,,BKN090,0.00,VWS V14.00,2013-01-15 16:44:00,
2013-01-15 11:49:00,34.1,23.2,30.25,NW,309,1.0,5.0,64,0.00,,BKN090,0.00,VWS V14.00,2013-01-15 16:49:00,
2013-01-15 11:54:00,34.3,23.8,30.25,WNW,289,6.0,6.0,65,0.00,,BKN090,0.00,VWS V14.00,2013-01-15 16:54:00,
2013-01-15 11:59:00,34.1,23.2,30.25,WNW,285,3.0,6.0,64,0.00,,BKN090,0.00,VWS V14.00,2013-01-15 16:59:00,
2013-01-15 12:04:00,34.1,23.2,30.25,NW,311,7.0,7.0,64,0.00,,BKN090,0.00,VWS V14.00,2013-01-15 17:04:00,
2013-01-15 12:09:00,34.3,23.4,30.25,NW,306,4.0,6.0,64,0.00,,BKN090,0.00,VWS V14.00,2013-01-15 17:09:00,
2013-01-15 12:14:00,34.3,23.4,30.23,WNW,292,5.0,6.0,64,0.00,,BKN090,0.00,VWS V14.00,2013-01-15 17:14:00,
2013-01-15 12:19:00,34.3,23.4,30.23,NW,304,4.0,4.0,64,0.00,,BKN090,0.00,VWS V14.00,2013-01-15 17:19:00,
2013-01-15 12:24:00,34.3,23.4,30.23,WNW,293,2.0,4.0,64,0.00,,BKN090,0.00,VWS V14.00,2013-01-15 17:24:00,
2013-01-15 12:30:00,34.3,23.4,30.23,NW,313,4.0,6.0,64,0.00,,BKN090,0.00,VWS V14.00,2013-01-15 17:30:00,
2013-01-15 12:35:00,34.3,23.4,30.23,WNW,288,4.0,5.0,64,0.00,,BKN090,0.00,VWS V14.00,2013-01-15 17:35:00,
2013-01-15 12:40:00,34.4,23.5,30.23,WNW,302,6.0,7.0,64,0.00,,BKN090,0.00,VWS V14.00,2013-01-15 17:40:00,
2013-01-15 12:45:00,34.6,23.7,30.23,North,355,4.0,7.0,64,0.00,,BKN090,0.00,VWS V14.00,2013-01-15 17:45:00,
2013-01-15 12:50:00,34.6,23.3,30.23,NW,306,2.0,5.0,63,0.00,,BKN090,0.00,VWS V14.00,2013-01-15 17:50:00,
2013-01-15 12:55:00,34.7,23.4,30.23,WNW,302,1.0,6.0,63,0.00,,BKN090,0.00,VWS V14.00,2013-01-15 17:55:00,
2013-01-15 13:00:00,34.7,23.4,30.22,WNW,302,3.0,6.0,63,0.00,,BKN090,0.00,VWS V14.00,2013-01-15 18:00:00,
2013-01-15 13:05:00,34.7,23.4,30.22,WNW,303,1.0,2.0,63,0.00,,BKN090,0.00,VWS V14.00,2013-01-15 18:05:00,
2013-01-15 13:10:00,34.9,24.0,30.22,NW,318,3.0,4.0,64,0.00,,BKN090,0.00,VWS V14.00,2013-01-15 18:10:00,
2013-01-15 13:15:00,35.0,24.1,30.21,NE,47,0.0,2.0,64,0.00,,BKN090,0.00,VWS V14.00,2013-01-15 18:15:00,
2013-01-15 13:20:00,35.2,23.9,30.21,NW,315,3.0,7.0,63,0.00,,BKN090,0.00,VWS V14.00,2013-01-15 18:20:00,
2013-01-15 13:25:00,35.2,23.5,30.21,WNW,299,5.0,7.0,62,0.00,,BKN090,0.00,VWS V14.00,2013-01-15 18:25:00,
2013-01-15 13:30:00,35.2,23.9,30.21,WNW,290,3.0,5.0,63,0.00,,BKN090,0.00,VWS V14.00,2013-01-15 18:30:00,
2013-01-15 13:35:00,35.2,23.5,30.21,NW,325,3.0,5.0,62,0.00,,BKN090,0.00,VWS V14.00,2013-01-15 18:35:00,
2013-01-15 13:40:00,35.2,23.1,30.21,NW,319,7.0,8.0,61,0.00,,BKN090,0.00,VWS V14.00,2013-01-15 18:40:00,
2013-01-15 13:45:00,35.2,23.1,30.20,WNW,295,0.0,3.0,61,0.00,,BKN090,0.00,VWS V14.00,2013-01-15 18:45:00,
2013-01-15 13:50:00,35.3,23.6,30.20,West,266,4.0,4.0,62,0.00,,FEW085,0.00,VWS V14.00,2013-01-15 18:50:00,
2013-01-15 13:55:00,35.2,23.1,30.20,WNW,297,6.0,7.0,61,0.00,,FEW085,0.00,VWS V14.00,2013-01-15 18:55:00,
2013-01-15 14:00:00,35.2,23.1,30.19,WNW,295,2.0,6.0,61,0.00,,FEW085,0.00,VWS V14.00,2013-01-15 19:00:00,
2013-01-15 14:05:00,35.2,23.1,30.19,WNW,294,4.0,6.0,61,0.00,,FEW085,0.00,VWS V14.00,2013-01-15 19:05:00,
2013-01-15 14:10:00,35.2,23.1,30.19,WNW,286,4.0,5.0,61,0.00,,FEW085,0.00,VWS V14.00,2013-01-15 19:10:00,
2013-01-15 14:15:00,35.2,23.1,30.20,WNW,294,3.0,5.0,61,0.00,,FEW085,0.00,VWS V14.00,2013-01-15 19:15:00,
2013-01-15 14:20:00,35.3,23.2,30.20,NW,304,3.0,6.0,61,0.00,,FEW085,0.00,VWS V14.00,2013-01-15 19:20:00,
2013-01-15 14:25:00,35.6,23.5,30.20,WNW,288,7.0,7.0,61,0.00,,FEW085,0.00,VWS V14.00,2013-01-15 19:25:00,
2013-01-15 14:30:00,35.6,23.5,30.21,WNW,294,4.0,5.0,61,0.00,,FEW085,0.00,VWS V14.00,2013-01-15 19:30:00,
2013-01-15 14:35:00,35.8,23.3,30.21,WNW,294,3.0,4.0,60,0.00,,FEW085,0.00,VWS V14.00,2013-01-15 19:35:00,
2013-01-15 14:40:00,35.8,23.3,30.21,North,355,3.0,7.0,60,0.00,,FEW085,0.00,VWS V14.00,2013-01-15 19:40:00,
2013-01-15 14:45:00,35.8,22.9,30.20,WNW,302,4.0,4.0,59,0.00,,FEW085,0.00,VWS V14.00,2013-01-15 19:45:00,
2013-01-15 14:50:00,35.6,23.1,30.20,NW,308,0.0,6.0,60,0.00,,CLR,0.00,VWS V14.00,2013-01-15 19:50:00,
2013-01-15 14:55:00,35.6,22.7,30.20,NNW,330,1.0,7.0,59,0.00,,CLR,0.00,VWS V14.00,2013-01-15 19:55:00,
2013-01-15 15:00:00,35.5,22.2,30.20,NW,313,1.0,4.0,58,0.00,,CLR,0.00,VWS V14.00,2013-01-15 20:00:00,
2013-01-15 15:05:00,35.3,22.4,30.20,NW,311,1.0,4.0,59,0.00,,CLR,0.00,VWS V14.00,2013-01-15 20:05:00,
2013-01-15 15:10:00,35.3,22.4,30.20,WNW,296,3.0,4.0,59,0.00,,CLR,0.00,VWS V14.00,2013-01-15 20:10:00,
2013-01-15 15:15:00,35.3,22.4,30.19,WNW,289,0.0,2.0,59,0.00,,CLR,0.00,VWS V14.00,2013-01-15 20:15:00,
2013-01-15 15:20:00,35.5,23.0,30.19,NW,307,2.0,4.0,60,0.00,,CLR,0.00,VWS V14.00,2013-01-15 20:20:00,
2013-01-15 15:25:00,35.5,22.6,30.19,WNW,296,2.0,3.0,59,0.00,,CLR,0.00,VWS V14.00,2013-01-15 20:25:00,
2013-01-15 15:30:00,35.5,22.6,30.19,NW,304,2.0,3.0,59,0.00,,CLR,0.00,VWS V14.00,2013-01-15 20:30:00,
2013-01-15 15:35:00,35.3,22.4,30.19,WNW,301,1.0,5.0,59,0.00,,CLR,0.00,VWS V14.00,2013-01-15 20:35:00,
2013-01-15 15:40:00,35.3,22.8,30.19,NW,320,3.0,3.0,60,0.00,,CLR,0.00,VWS V14.00,2013-01-15 20:40:00,
2013-01-15 15:45:00,35.3,22.8,30.21,NW,313,2.0,5.0,60,0.00,,CLR,0.00,VWS V14.00,2013-01-15 20:45:00,
2013-01-15 15:50:00,35.3,22.4,30.21,NW,313,0.0,2.0,59,0.00,,CLR,0.00,VWS V14.00,2013-01-15 20:50:00,
2013-01-15 15:55:00,35.3,22.8,30.21,WNW,297,4.0,6.0,60,0.00,,CLR,0.00,VWS V14.00,2013-01-15 20:55:00,
2013-01-15 16:00:00,35.3,22.4,30.22,WNW,289,4.0,4.0,59,0.00,,FEW085,0.00,VWS V14.00,2013-01-15 21:00:00,
2013-01-15 16:06:00,35.2,22.3,30.22,WNW,291,3.0,3.0,59,0.00,,FEW085,0.00,VWS V14.00,2013-01-15 21:06:00,
2013-01-15 16:11:00,35.2,22.3,30.22,NW,304,5.0,6.0,59,0.00,,FEW085,0.00,VWS V14.00,2013-01-15 21:11:00,
2013-01-15 16:16:00,35.0,22.1,30.22,WNW,298,1.0,3.0,59,0.00,,FEW085,0.00,VWS V14.00,2013-01-15 21:16:00,
2013-01-15 16:21:00,35.0,22.1,30.22,WNW,297,4.0,4.0,59,0.00,,FEW085,0.00,VWS V14.00,2013-01-15 21:21:00,
2013-01-15 16:26:00,34.9,22.0,30.22,WNW,293,2.0,4.0,59,0.00,,FEW085,0.00,VWS V14.00,2013-01-15 21:26:00,
2013-01-15 16:31:00,34.7,21.9,30.22,WNW,300,0.0,1.0,59,0.00,,FEW085,0.00,VWS V14.00,2013-01-15 21:31:00,
2013-01-15 16:36:00,34.7,21.9,30.22,NW,308,4.0,4.0,59,0.00,,FEW085,0.00,VWS V14.00,2013-01-15 21:36:00,
2013-01-15 16:41:00,34.6,21.8,30.22,WNW,298,1.0,3.0,59,0.00,,FEW085,0.00,VWS V14.00,2013-01-15 21:41:00,
2013-01-15 16:46:00,34.6,22.2,30.22,WNW,298,2.0,3.0,60,0.00,,CLR,0.00,VWS V14.00,2013-01-15 21:46:00,
2013-01-15 16:51:00,34.4,22.0,30.22,NW,325,2.0,3.0,60,0.00,,CLR,0.00,VWS V14.00,2013-01-15 21:51:00,
2013-01-15 16:56:00,34.3,21.9,30.22,North,355,0.0,3.0,60,0.00,,CLR,0.00,VWS V14.00,2013-01-15 21:56:00,
2013-01-15 17:01:00,34.3,21.9,30.21,North,355,1.0,2.0,60,0.00,,CLR,0.00,VWS V14.00,2013-01-15 22:01:00,
2013-01-15 17:06:00,34.1,21.7,30.21,North,355,1.0,1.0,60,0.00,,CLR,0.00,VWS V14.00,2013-01-15 22:06:00,
2013-01-15 17:11:00,34.1,21.7,30.21,NW,315,1.0,4.0,60,0.00,,CLR,0.00,VWS V14.00,2013-01-15 22:11:00,
2013-01-15 17:16:00,34.0,22.0,30.22,NW,315,2.0,2.0,61,0.00,,CLR,0.00,VWS V14.00,2013-01-15 22:16:00,
2013-01-15 17:21:00,34.0,22.0,30.22,NW,319,0.0,0.0,61,0.00,,CLR,0.00,VWS V14.00,2013-01-15 22:21:00,
2013-01-15 17:26:00,33.8,21.8,30.22,NW,319,1.0,1.0,61,0.00,,CLR,0.00,VWS V14.00,2013-01-15 22:26:00,
2013-01-15 17:31:00,33.8,21.8,30.22,NW,319,0.0,0.0,61,0.00,,CLR,0.00,VWS V14.00,2013-01-15 22:31:00,
2013-01-15 17:36:00,33.8,22.2,30.22,NW,319,0.0,0.0,62,0.00,,CLR,0.00,VWS V14.00,2013-01-15 22:36:00,
2013-01-15 17:41:00,33.7,22.1,30.22,NW,319,0.0,0.0,62,0.00,,CLR,0.00,VWS V14.00,2013-01-15 22:41:00,
2013-01-15 17:46:00,33.7,22.5,30.21,NW,319,0.0,0.0,63,0.00,,OVC085,0.00,VWS V14.00,2013-01-15 22:46:00,
2013-01-15 17:51:00,33.5,22.3,30.21,NW,319,0.0,0.0,63,0.00,,OVC085,0.00,VWS V14.00,2013-01-15 22:51:00,
2013-01-15 17:56:00,33.5,22.3,30.21,NW,319,0.0,1.0,63,0.00,,OVC085,0.00,VWS V14.00,2013-01-15 22:56:00,
2013-01-15 18:01:00,33.4,22.5,30.22,NW,319,1.0,1.0,64,0.00,,OVC085,0.00,VWS V14.00,2013-01-15 23:01:00,
2013-01-15 18:06:00,33.2,22.4,30.22,NW,319,0.0,0.0,64,0.00,,OVC085,0.00,VWS V14.00,2013-01-15 23:06:00,
2013-01-15 18:11:00,33.1,22.3,30.22,NW,319,0.0,0.0,64,0.00,,OVC085,0.00,VWS V14.00,2013-01-15 23:11:00,
2013-01-15 18:16:00,33.1,22.6,30.21,NW,319,0.0,1.0,65,0.00,,OVC085,0.00,VWS V14.00,2013-01-15 23:16:00,
2013-01-15 18:21:00,32.9,22.4,30.21,NW,319,0.0,0.0,65,0.00,,OVC085,0.00,VWS V14.00,2013-01-15 23:21:00,
2013-01-15 18:26:00,32.9,22.4,30.21,NW,319,0.0,0.0,65,0.00,,OVC085,0.00,VWS V14.00,2013-01-15 23:26:00,
2013-01-15 18:31:00,32.8,22.7,30.22,NW,319,0.0,1.0,66,0.00,,OVC085,0.00,VWS V14.00,2013-01-15 23:31:00,
2013-01-15 18:36:00,32.8,22.7,30.22,NW,319,1.0,2.0,66,0.00,,OVC085,0.00,VWS V14.00,2013-01-15 23:36:00,
2013-01-15 18:41:00,32.8,22.7,30.22,NW,319,1.0,1.0,66,0.00,,OVC085,0.00,VWS V14.00,2013-01-15 23:41:00,
2013-01-15 18:46:00,32.8,23.1,30.22,NW,319,0.0,1.0,67,0.00,,BKN080,0.00,VWS V14.00,2013-01-15 23:46:00,
2013-01-15 18:51:00,32.8,23.1,30.22,NW,319,0.0,1.0,67,0.00,,BKN080,0.00,VWS V14.00,2013-01-15 23:51:00,
2013-01-15 18:56:00,32.7,22.6,30.22,NNW,340,0.0,1.0,66,0.00,,BKN080,0.00,VWS V14.00,2013-01-15 23:56:00,
2013-01-15 19:01:00,32.8,23.1,30.22,NNW,342,0.0,0.0,67,0.00,,BKN080,0.00,VWS V14.00,2013-01-16 00:01:00,
2013-01-15 19:06:00,32.8,23.1,30.22,NNW,338,0.0,2.0,67,0.00,,BKN080,0.00,VWS V14.00,2013-01-16 00:06:00,
2013-01-15 19:11:00,32.8,22.7,30.22,NNW,338,0.0,1.0,66,0.00,,BKN080,0.00,VWS V14.00,2013-01-16 00:11:00,
2013-01-15 19:16:00,32.8,22.7,30.22,NNW,338,0.0,1.0,66,0.00,,OVC070,0.00,VWS V14.00,2013-01-16 00:16:00,
2013-01-15 19:21:00,32.8,22.7,30.22,NNW,338,0.0,0.0,66,0.00,,OVC070,0.00,VWS V14.00,2013-01-16 00:21:00,
2013-01-15 19:26:00,32.8,22.7,30.22,NNW,338,1.0,1.0,66,0.00,,OVC070,0.00,VWS V14.00,2013-01-16 00:26:00,
2013-01-15 19:31:00,32.8,22.7,30.22,NNW,348,0.0,2.0,66,0.00,,OVC070,0.00,VWS V14.00,2013-01-16 00:31:00,
2013-01-15 19:36:00,32.8,22.7,30.22,NNW,348,0.0,1.0,66,0.00,,OVC070,0.00,VWS V14.00,2013-01-16 00:36:00,
2013-01-15 19:41:00,32.8,22.7,30.22,NNW,348,0.0,0.0,66,0.00,,OVC070,0.00,VWS V14.00,2013-01-16 00:41:00,
2013-01-15 19:46:00,32.8,22.7,30.22,NNW,348,0.0,0.0,66,0.00,,OVC070,0.00,VWS V14.00,2013-01-16 00:46:00,
2013-01-15 19:51:00,32.8,22.7,30.22,NNW,348,0.0,1.0,66,0.00,,OVC070,0.00,VWS V14.00,2013-01-16 00:51:00,
2013-01-15 19:57:00,32.8,22.7,30.22,NNW,348,0.0,0.0,66,0.00,,OVC070,0.00,VWS V14.00,2013-01-16 00:57:00,
2013-01-15 20:02:00,32.9,23.2,30.20,NNW,348,0.0,0.0,67,0.00,,OVC070,0.00,VWS V14.00,2013-01-16 01:02:00,
2013-01-15 20:07:00,32.9,23.2,30.20,North,360,0.0,1.0,67,0.00,,OVC070,0.00,VWS V14.00,2013-01-16 01:07:00,
2013-01-15 20:12:00,32.9,23.2,30.20,North,360,1.0,2.0,67,0.00,,OVC070,0.00,VWS V14.00,2013-01-16 01:12:00,
2013-01-15 20:17:00,32.9,22.8,30.20,North,360,0.0,1.0,66,0.00,,OVC070,0.00,VWS V14.00,2013-01-16 01:17:00,
2013-01-15 20:22:00,32.9,23.2,30.20,North,360,0.0,1.0,67,0.00,,OVC070,0.00,VWS V14.00,2013-01-16 01:22:00,
2013-01-15 20:27:00,32.9,22.8,30.20,North,360,0.0,0.0,66,0.00,,OVC070,0.00,VWS V14.00,2013-01-16 01:27:00,
2013-01-15 20:32:00,32.9,22.8,30.20,North,360,0.0,0.0,66,0.00,,OVC070,0.00,VWS V14.00,2013-01-16 01:32:00,
2013-01-15 20:37:00,32.9,22.8,30.20,North,360,0.0,0.0,66,0.00,,OVC070,0.00,VWS V14.00,2013-01-16 01:37:00,
2013-01-15 20:42:00,32.9,22.8,30.20,North,360,0.0,0.0,66,0.00,,OVC070,0.00,VWS V14.00,2013-01-16 01:42:00,
2013-01-15 20:47:00,32.9,22.8,30.20,North,360,0.0,0.0,66,0.00,,OVC070,0.00,VWS V14.00,2013-01-16 01:47:00,
2013-01-15 20:52:00,32.9,22.8,30.20,North,360,0.0,0.0,66,0.00,,OVC070,0.00,VWS V14.00,2013-01-16 01:52:00,
2013-01-15 20:57:00,32.9,23.2,30.20,North,360,0.0,0.0,67,0.00,,OVC070,0.00,VWS V14.00,2013-01-16 01:57:00,
2013-01-15 21:02:00,32.9,22.8,30.20,North,360,0.0,1.0,66,0.00,,OVC070,0.00,VWS V14.00,2013-01-16 02:02:00,
2013-01-15 21:07:00,32.9,22.8,30.20,North,360,0.0,0.0,66,0.00,,OVC070,0.00,VWS V14.00,2013-01-16 02:07:00,
2013-01-15 21:12:00,32.9,22.8,30.20,North,360,0.0,0.0,66,0.00,,OVC070,0.00,VWS V14.00,2013-01-16 02:12:00,
2013-01-15 21:17:00,32.9,22.8,30.19,East,99,3.0,5.0,66,0.00,,OVC070,0.00,VWS V14.00,2013-01-16 02:17:00,
2013-01-15 21:22:00,32.9,22.8,30.19,North,11,1.0,2.0,66,0.00,,OVC070,0.00,VWS V14.00,2013-01-16 02:22:00,
2013-01-15 21:27:00,32.9,22.8,30.19,North,11,1.0,2.0,66,0.00,,OVC070,0.00,VWS V14.00,2013-01-16 02:27:00,
2013-01-15 21:32:00,32.9,22.4,30.18,North,11,0.0,1.0,65,0.00,,OVC070,0.00,VWS V14.00,2013-01-16 02:32:00,
2013-01-15 21:37:00,32.8,22.3,30.18,North,5,3.0,4.0,65,0.00,,OVC070,0.00,VWS V14.00,2013-01-16 02:37:00,
2013-01-15 21:42:00,32.8,22.0,30.18,NNW,335,2.0,4.0,64,0.00,,OVC070,0.00,VWS V14.00,2013-01-16 02:42:00,
2013-01-15 21:47:00,32.8,22.0,30.18,North,360,0.0,2.0,64,0.00,,OVC065,0.00,VWS V14.00,2013-01-16 02:47:00,
2013-01-15 21:52:00,32.8,22.0,30.18,North,360,1.0,2.0,64,0.00,,OVC065,0.00,VWS V14.00,2013-01-16 02:52:00,
2013-01-15 21:57:00,32.8,22.0,30.18,North,360,0.0,1.0,64,0.00,,OVC065,0.00,VWS V14.00,2013-01-16 02:57:00,
2013-01-15 22:02:00,32.8,21.6,30.18,North,355,1.0,3.0,63,0.00,,OVC065,0.00,VWS V14.00,2013-01-16 03:02:00,
2013-01-15 22:07:00,32.8,22.0,30.18,NE,36,0.0,0.0,64,0.00,,OVC065,0.00,VWS V14.00,2013-01-16 03:07:00,
2013-01-15 22:12:00,32.8,22.0,30.18,NNE,22,2.0,2.0,64,0.00,,OVC065,0.00,VWS V14.00,2013-01-16 03:12:00,
2013-01-15 22:17:00,32.8,22.0,30.18,NNE,22,0.0,1.0,64,0.00,,OVC065,0.00,VWS V14.00,2013-01-16 03:17:00,
2013-01-15 22:22:00,32.7,21.5,30.18,NNE,16,1.0,3.0,63,0.00,,OVC065,0.00,VWS V14.00,2013-01-16 03:22:00,
2013-01-15 22:27:00,32.7,21.9,30.18,NNE,16,0.0,2.0,64,0.00,,OVC065,0.00,VWS V14.00,2013-01-16 03:27:00,
2013-01-15 22:32:00,32.7,21.9,30.16,NNE,16,0.0,0.0,64,0.00,,OVC065,0.00,VWS V14.00,2013-01-16 03:32:00,
2013-01-15 22:37:00,32.7,21.9,30.16,NNE,16,0.0,0.0,64,0.00,,OVC065,0.00,VWS V14.00,2013-01-16 03:37:00,
2013-01-15 22:42:00,32.7,21.5,30.16,NNE,16,0.0,1.0,63,0.00,,OVC065,0.00,VWS V14.00,2013-01-16 03:42:00,
2013-01-15 22:47:00,32.7,21.5,30.17,NNE,16,0.0,0.0,63,0.00,,OVC065,0.00,VWS V14.00,2013-01-16 03:47:00,
2013-01-15 22:52:00,32.7,21.5,30.17,NNE,16,0.0,0.0,63,0.00,,OVC065,0.00,VWS V14.00,2013-01-16 03:52:00,
2013-01-15 22:57:00,32.7,21.5,30.17,NNE,16,0.0,0.0,63,0.00,,OVC065,0.00,VWS V14.00,2013-01-16 03:57:00,
2013-01-15 23:02:00,32.7,21.5,30.18,NNE,16,0.0,0.0,63,0.00,,OVC065,0.00,VWS V14.00,2013-01-16 04:02:00,
2013-01-15 23:07:00,32.7,21.5,30.18,NNE,16,0.0,0.0,63,0.00,,OVC065,0.00,VWS V14.00,2013-01-16 04:07:00,
2013-01-15 23:12:00,32.7,21.9,30.18,NNE,16,0.0,0.0,64,0.00,,OVC065,0.00,VWS V14.00,2013-01-16 04:12:00,
2013-01-15 23:17:00,32.7,21.9,30.18,NNE,16,0.0,0.0,64,0.00,,OVC065,0.00,VWS V14.00,2013-01-16 04:17:00,
2013-01-15 23:22:00,32.7,21.9,30.18,NNE,16,0.0,1.0,64,0.00,,OVC065,0.00,VWS V14.00,2013-01-16 04:22:00,
2013-01-15 23:27:00,32.5,21.7,30.18,NNE,16,0.0,0.0,64,0.00,,OVC065,0.00,VWS V14.00,2013-01-16 04:27:00,
2013-01-15 23:33:00,32.5,21.7,30.17,NW,311,2.0,3.0,64,0.00,,OVC065,0.00,VWS V14.00,2013-01-16 04:33:00,
2013-01-15 23:37:00,32.5,21.7,30.17,NNW,337,0.0,1.0,64,0.00,,OVC065,0.00,VWS V14.00,2013-01-16 04:37:00,
2013-01-15 23:42:00,32.5,21.7,30.17,North,350,0.0,0.0,64,0.00,,OVC065,0.00,VWS V14.00,2013-01-16 04:42:00,
2013-01-15 23:48:00,32.5,21.7,30.17,North,350,0.0,0.0,64,0.00,,OVC085,0.00,VWS V14.00,2013-01-16 04:48:00,
2013-01-15 23:53:00,32.5,21.7,30.17,North,350,0.0,1.0,64,0.00,,OVC085,0.00,VWS V14.00,2013-01-16 04:53:00,
2013-01-15 23:58:00,32.4,21.6,30.17,North,350,0.0,0.0,64,0.00,,OVC085,0.00,VWS V14.00,2013-01-16 04:58:00,